sensor_id;sensor_type;location;lat;lon;timestamp;P1;durP1;ratioP1;P2;durP2;ratioP2
6117;SDS011;3089;48.202;11.510;2023-09-18T00:02:15;8.20;;;3.90;;
6117;SDS011;3089;48.202;11.510;2023-09-18T00:04:44;7.77;;;3.60;;
6117;SDS011;3089;48.202;11.510;2023-09-18T00:07:12;8.67;;;3.80;;
6117;SDS011;3089;48.202;11.510;2023-09-18T00:09:40;11.77;;;4.20;;
6117;SDS011;3089;48.202;11.510;2023-09-18T00:12:08;5.97;;;3.23;;
6117;SDS011;3089;48.202;11.510;2023-09-18T00:14:36;9.23;;;4.43;;
6117;SDS011;3089;48.202;11.510;2023-09-18T00:17:05;10.20;;;3.93;;
6117;SDS011;3089;48.202;11.510;2023-09-18T00:19:33;5.20;;;3.20;;
6117;SDS011;3089;48.202;11.510;2023-09-18T00:22:02;9.53;;;3.87;;
6117;SDS011;3089;48.202;11.510;2023-09-18T00:24:31;5.20;;;3.40;;
6117;SDS011;3089;48.202;11.510;2023-09-18T00:27:00;4.87;;;2.83;;
6117;SDS011;3089;48.202;11.510;2023-09-18T00:29:27;6.50;;;3.40;;
6117;SDS011;3089;48.202;11.510;2023-09-18T00:31:55;7.07;;;3.50;;
6117;SDS011;3089;48.202;11.510;2023-09-18T00:34:23;6.67;;;4.30;;
6117;SDS011;3089;48.202;11.510;2023-09-18T00:36:51;5.20;;;3.30;;
6117;SDS011;3089;48.202;11.510;2023-09-18T00:39:20;5.97;;;3.70;;
6117;SDS011;3089;48.202;11.510;2023-09-18T00:41:48;6.00;;;3.30;;
6117;SDS011;3089;48.202;11.510;2023-09-18T00:44:20;7.37;;;3.87;;
6117;SDS011;3089;48.202;11.510;2023-09-18T00:46:48;7.50;;;3.40;;
6117;SDS011;3089;48.202;11.510;2023-09-18T00:49:17;5.83;;;3.30;;
6117;SDS011;3089;48.202;11.510;2023-09-18T00:51:46;7.80;;;3.70;;
6117;SDS011;3089;48.202;11.510;2023-09-18T00:54:14;6.80;;;3.50;;
6117;SDS011;3089;48.202;11.510;2023-09-18T00:56:45;7.80;;;3.97;;
6117;SDS011;3089;48.202;11.510;2023-09-18T00:59:14;7.27;;;4.10;;
6117;SDS011;3089;48.202;11.510;2023-09-18T01:01:42;7.60;;;3.70;;
6117;SDS011;3089;48.202;11.510;2023-09-18T01:04:13;7.33;;;3.53;;
6117;SDS011;3089;48.202;11.510;2023-09-18T01:06:42;7.90;;;3.60;;
6117;SDS011;3089;48.202;11.510;2023-09-18T01:09:09;6.13;;;3.13;;
6117;SDS011;3089;48.202;11.510;2023-09-18T01:11:43;6.10;;;3.43;;
6117;SDS011;3089;48.202;11.510;2023-09-18T01:14:19;9.80;;;3.33;;
6117;SDS011;3089;48.202;11.510;2023-09-18T01:16:53;14.33;;;3.80;;
6117;SDS011;3089;48.202;11.510;2023-09-18T01:19:39;6.40;;;3.53;;
6117;SDS011;3089;48.202;11.510;2023-09-18T01:22:08;9.77;;;3.90;;
6117;SDS011;3089;48.202;11.510;2023-09-18T01:24:38;10.43;;;4.13;;
6117;SDS011;3089;48.202;11.510;2023-09-18T01:27:08;12.83;;;4.07;;
6117;SDS011;3089;48.202;11.510;2023-09-18T01:29:36;7.90;;;3.87;;
6117;SDS011;3089;48.202;11.510;2023-09-18T01:32:04;9.70;;;4.27;;
6117;SDS011;3089;48.202;11.510;2023-09-18T01:34:33;5.83;;;3.27;;
6117;SDS011;3089;48.202;11.510;2023-09-18T01:37:03;7.90;;;3.67;;
6117;SDS011;3089;48.202;11.510;2023-09-18T01:39:32;8.90;;;3.43;;
6117;SDS011;3089;48.202;11.510;2023-09-18T01:42:03;6.60;;;3.70;;
6117;SDS011;3089;48.202;11.510;2023-09-18T01:44:32;6.53;;;3.47;;
6117;SDS011;3089;48.202;11.510;2023-09-18T01:47:02;7.00;;;3.40;;
6117;SDS011;3089;48.202;11.510;2023-09-18T01:49:31;7.60;;;3.33;;
6117;SDS011;3089;48.202;11.510;2023-09-18T01:52:00;6.70;;;3.67;;
6117;SDS011;3089;48.202;11.510;2023-09-18T01:54:28;5.93;;;3.07;;
6117;SDS011;3089;48.202;11.510;2023-09-18T01:56:57;5.27;;;3.03;;
6117;SDS011;3089;48.202;11.510;2023-09-18T01:59:26;7.00;;;3.23;;
6117;SDS011;3089;48.202;11.510;2023-09-18T02:01:55;6.80;;;3.50;;
6117;SDS011;3089;48.202;11.510;2023-09-18T02:04:23;6.33;;;3.80;;
6117;SDS011;3089;48.202;11.510;2023-09-18T02:07:11;8.10;;;3.63;;
6117;SDS011;3089;48.202;11.510;2023-09-18T02:09:40;7.70;;;3.47;;
6117;SDS011;3089;48.202;11.510;2023-09-18T02:12:08;8.47;;;3.83;;
6117;SDS011;3089;48.202;11.510;2023-09-18T02:14:37;7.07;;;3.20;;
6117;SDS011;3089;48.202;11.510;2023-09-18T02:17:05;5.70;;;3.27;;
6117;SDS011;3089;48.202;11.510;2023-09-18T02:19:32;7.53;;;3.40;;
6117;SDS011;3089;48.202;11.510;2023-09-18T02:22:00;7.33;;;3.50;;
6117;SDS011;3089;48.202;11.510;2023-09-18T02:24:29;5.30;;;3.37;;
6117;SDS011;3089;48.202;11.510;2023-09-18T02:26:57;6.50;;;3.20;;
6117;SDS011;3089;48.202;11.510;2023-09-18T02:29:25;8.93;;;2.90;;
6117;SDS011;3089;48.202;11.510;2023-09-18T02:31:54;7.07;;;3.47;;
6117;SDS011;3089;48.202;11.510;2023-09-18T02:34:22;9.97;;;3.57;;
6117;SDS011;3089;48.202;11.510;2023-09-18T02:36:50;7.53;;;3.50;;
6117;SDS011;3089;48.202;11.510;2023-09-18T02:39:18;7.23;;;3.67;;
6117;SDS011;3089;48.202;11.510;2023-09-18T02:41:46;4.50;;;2.63;;
6117;SDS011;3089;48.202;11.510;2023-09-18T02:44:13;7.47;;;3.80;;
6117;SDS011;3089;48.202;11.510;2023-09-18T02:46:42;6.47;;;3.30;;
6117;SDS011;3089;48.202;11.510;2023-09-18T02:49:11;7.07;;;3.33;;
6117;SDS011;3089;48.202;11.510;2023-09-18T02:51:39;5.97;;;3.53;;
6117;SDS011;3089;48.202;11.510;2023-09-18T02:54:07;5.73;;;3.27;;
6117;SDS011;3089;48.202;11.510;2023-09-18T02:56:35;6.77;;;3.40;;
6117;SDS011;3089;48.202;11.510;2023-09-18T02:59:04;7.80;;;3.20;;
6117;SDS011;3089;48.202;11.510;2023-09-18T03:01:32;5.03;;;2.90;;
6117;SDS011;3089;48.202;11.510;2023-09-18T03:04:00;5.27;;;3.00;;
6117;SDS011;3089;48.202;11.510;2023-09-18T03:06:30;5.93;;;3.40;;
6117;SDS011;3089;48.202;11.510;2023-09-18T03:08:57;4.93;;;2.97;;
6117;SDS011;3089;48.202;11.510;2023-09-18T03:11:25;6.83;;;3.37;;
6117;SDS011;3089;48.202;11.510;2023-09-18T03:13:55;5.70;;;3.27;;
6117;SDS011;3089;48.202;11.510;2023-09-18T03:16:23;6.30;;;2.83;;
6117;SDS011;3089;48.202;11.510;2023-09-18T03:18:51;6.83;;;3.37;;
6117;SDS011;3089;48.202;11.510;2023-09-18T03:21:19;5.53;;;3.17;;
6117;SDS011;3089;48.202;11.510;2023-09-18T03:23:48;5.37;;;3.33;;
6117;SDS011;3089;48.202;11.510;2023-09-18T03:26:16;4.67;;;3.00;;
6117;SDS011;3089;48.202;11.510;2023-09-18T03:28:44;5.80;;;3.43;;
6117;SDS011;3089;48.202;11.510;2023-09-18T03:31:12;11.63;;;3.00;;
6117;SDS011;3089;48.202;11.510;2023-09-18T03:33:39;6.00;;;3.33;;
6117;SDS011;3089;48.202;11.510;2023-09-18T03:36:07;5.00;;;2.83;;
6117;SDS011;3089;48.202;11.510;2023-09-18T03:38:37;5.37;;;3.27;;
6117;SDS011;3089;48.202;11.510;2023-09-18T03:41:06;6.00;;;3.47;;
6117;SDS011;3089;48.202;11.510;2023-09-18T03:43:34;9.13;;;3.23;;
6117;SDS011;3089;48.202;11.510;2023-09-18T03:46:03;4.90;;;3.10;;
6117;SDS011;3089;48.202;11.510;2023-09-18T03:48:31;5.60;;;3.67;;
6117;SDS011;3089;48.202;11.510;2023-09-18T03:51:03;5.10;;;3.00;;
6117;SDS011;3089;48.202;11.510;2023-09-18T03:53:31;5.40;;;3.17;;
6117;SDS011;3089;48.202;11.510;2023-09-18T03:55:59;5.60;;;3.03;;
6117;SDS011;3089;48.202;11.510;2023-09-18T03:58:29;5.70;;;3.17;;
6117;SDS011;3089;48.202;11.510;2023-09-18T04:01:01;5.40;;;3.37;;
6117;SDS011;3089;48.202;11.510;2023-09-18T04:03:29;5.00;;;3.13;;
6117;SDS011;3089;48.202;11.510;2023-09-18T04:05:57;6.73;;;3.43;;
6117;SDS011;3089;48.202;11.510;2023-09-18T04:08:25;4.90;;;2.47;;
6117;SDS011;3089;48.202;11.510;2023-09-18T04:10:54;5.80;;;3.03;;
6117;SDS011;3089;48.202;11.510;2023-09-18T04:13:24;6.73;;;3.87;;
6117;SDS011;3089;48.202;11.510;2023-09-18T04:15:53;5.90;;;3.17;;
6117;SDS011;3089;48.202;11.510;2023-09-18T04:18:23;6.83;;;3.00;;
6117;SDS011;3089;48.202;11.510;2023-09-18T04:20:51;5.73;;;2.97;;
6117;SDS011;3089;48.202;11.510;2023-09-18T04:23:20;5.30;;;2.80;;
6117;SDS011;3089;48.202;11.510;2023-09-18T04:25:49;5.37;;;2.67;;
6117;SDS011;3089;48.202;11.510;2023-09-18T04:28:18;5.90;;;3.20;;
6117;SDS011;3089;48.202;11.510;2023-09-18T04:30:47;8.10;;;2.90;;
6117;SDS011;3089;48.202;11.510;2023-09-18T04:33:16;6.23;;;3.10;;
6117;SDS011;3089;48.202;11.510;2023-09-18T04:35:45;6.93;;;3.10;;
6117;SDS011;3089;48.202;11.510;2023-09-18T04:38:13;4.43;;;2.63;;
6117;SDS011;3089;48.202;11.510;2023-09-18T04:40:42;4.23;;;2.43;;
6117;SDS011;3089;48.202;11.510;2023-09-18T04:43:09;7.10;;;2.90;;
6117;SDS011;3089;48.202;11.510;2023-09-18T04:45:37;7.10;;;3.07;;
6117;SDS011;3089;48.202;11.510;2023-09-18T04:48:05;5.43;;;2.73;;
6117;SDS011;3089;48.202;11.510;2023-09-18T04:50:35;5.73;;;2.80;;
6117;SDS011;3089;48.202;11.510;2023-09-18T04:53:03;9.53;;;2.70;;
6117;SDS011;3089;48.202;11.510;2023-09-18T04:55:31;7.20;;;3.63;;
6117;SDS011;3089;48.202;11.510;2023-09-18T04:57:59;7.77;;;3.70;;
6117;SDS011;3089;48.202;11.510;2023-09-18T05:00:30;6.33;;;3.50;;
6117;SDS011;3089;48.202;11.510;2023-09-18T05:02:58;7.27;;;4.13;;
6117;SDS011;3089;48.202;11.510;2023-09-18T05:05:27;5.70;;;3.00;;
6117;SDS011;3089;48.202;11.510;2023-09-18T05:07:57;4.40;;;2.70;;
6117;SDS011;3089;48.202;11.510;2023-09-18T05:10:25;6.57;;;3.03;;
6117;SDS011;3089;48.202;11.510;2023-09-18T05:12:53;6.10;;;3.23;;
6117;SDS011;3089;48.202;11.510;2023-09-18T05:15:25;9.10;;;3.80;;
6117;SDS011;3089;48.202;11.510;2023-09-18T05:17:56;5.07;;;2.97;;
6117;SDS011;3089;48.202;11.510;2023-09-18T05:20:25;6.60;;;3.30;;
6117;SDS011;3089;48.202;11.510;2023-09-18T05:22:56;6.70;;;3.50;;
6117;SDS011;3089;48.202;11.510;2023-09-18T05:25:27;8.87;;;3.20;;
6117;SDS011;3089;48.202;11.510;2023-09-18T05:27:58;11.63;;;3.27;;
6117;SDS011;3089;48.202;11.510;2023-09-18T05:30:28;7.40;;;3.10;;
6117;SDS011;3089;48.202;11.510;2023-09-18T05:32:59;5.70;;;3.37;;
6117;SDS011;3089;48.202;11.510;2023-09-18T05:35:31;9.00;;;2.73;;
6117;SDS011;3089;48.202;11.510;2023-09-18T05:38:00;7.47;;;3.10;;
6117;SDS011;3089;48.202;11.510;2023-09-18T05:40:28;8.30;;;3.83;;
6117;SDS011;3089;48.202;11.510;2023-09-18T05:42:56;12.50;;;3.47;;
6117;SDS011;3089;48.202;11.510;2023-09-18T05:45:24;7.40;;;3.30;;
6117;SDS011;3089;48.202;11.510;2023-09-18T05:47:54;6.47;;;3.80;;
6117;SDS011;3089;48.202;11.510;2023-09-18T05:50:28;12.40;;;4.00;;
6117;SDS011;3089;48.202;11.510;2023-09-18T05:52:56;11.20;;;3.50;;
6117;SDS011;3089;48.202;11.510;2023-09-18T05:55:27;13.10;;;3.20;;
6117;SDS011;3089;48.202;11.510;2023-09-18T05:57:55;6.30;;;2.87;;
6117;SDS011;3089;48.202;11.510;2023-09-18T06:00:23;5.27;;;3.10;;
6117;SDS011;3089;48.202;11.510;2023-09-18T06:02:51;8.90;;;3.33;;
6117;SDS011;3089;48.202;11.510;2023-09-18T06:05:20;7.53;;;3.80;;
6117;SDS011;3089;48.202;11.510;2023-09-18T06:07:48;7.07;;;2.73;;
6117;SDS011;3089;48.202;11.510;2023-09-18T06:10:17;6.70;;;2.90;;
6117;SDS011;3089;48.202;11.510;2023-09-18T06:12:46;6.10;;;3.40;;
6117;SDS011;3089;48.202;11.510;2023-09-18T06:15:14;8.75;;;3.78;;
6117;SDS011;3089;48.202;11.510;2023-09-18T06:17:42;6.50;;;3.63;;
6117;SDS011;3089;48.202;11.510;2023-09-18T06:20:11;8.33;;;3.83;;
6117;SDS011;3089;48.202;11.510;2023-09-18T06:22:40;7.53;;;3.27;;
6117;SDS011;3089;48.202;11.510;2023-09-18T06:25:11;7.87;;;3.70;;
6117;SDS011;3089;48.202;11.510;2023-09-18T06:27:39;6.17;;;3.10;;
6117;SDS011;3089;48.202;11.510;2023-09-18T06:30:09;9.63;;;4.17;;
6117;SDS011;3089;48.202;11.510;2023-09-18T06:32:37;10.43;;;4.00;;
6117;SDS011;3089;48.202;11.510;2023-09-18T06:35:05;7.70;;;3.97;;
6117;SDS011;3089;48.202;11.510;2023-09-18T06:37:34;8.13;;;3.80;;
6117;SDS011;3089;48.202;11.510;2023-09-18T06:40:02;5.90;;;3.77;;
6117;SDS011;3089;48.202;11.510;2023-09-18T06:42:31;8.70;;;4.17;;
6117;SDS011;3089;48.202;11.510;2023-09-18T06:44:59;6.67;;;3.50;;
6117;SDS011;3089;48.202;11.510;2023-09-18T06:47:29;11.83;;;3.63;;
6117;SDS011;3089;48.202;11.510;2023-09-18T06:49:57;5.73;;;3.40;;
6117;SDS011;3089;48.202;11.510;2023-09-18T06:52:26;10.07;;;3.93;;
6117;SDS011;3089;48.202;11.510;2023-09-18T06:54:55;7.17;;;4.20;;
6117;SDS011;3089;48.202;11.510;2023-09-18T06:57:24;7.20;;;3.77;;
6117;SDS011;3089;48.202;11.510;2023-09-18T06:59:52;6.30;;;3.70;;
6117;SDS011;3089;48.202;11.510;2023-09-18T07:02:20;9.53;;;3.83;;
6117;SDS011;3089;48.202;11.510;2023-09-18T07:04:49;6.97;;;3.70;;
6117;SDS011;3089;48.202;11.510;2023-09-18T07:07:17;7.00;;;3.60;;
6117;SDS011;3089;48.202;11.510;2023-09-18T07:09:51;8.60;;;3.70;;
6117;SDS011;3089;48.202;11.510;2023-09-18T07:12:31;8.40;;;3.70;;
6117;SDS011;3089;48.202;11.510;2023-09-18T07:14:59;7.57;;;3.20;;
6117;SDS011;3089;48.202;11.510;2023-09-18T07:17:31;15.00;;;3.70;;
6117;SDS011;3089;48.202;11.510;2023-09-18T07:20:01;8.17;;;3.43;;
6117;SDS011;3089;48.202;11.510;2023-09-18T07:22:36;9.60;;;3.70;;
6117;SDS011;3089;48.202;11.510;2023-09-18T07:25:04;6.97;;;3.33;;
6117;SDS011;3089;48.202;11.510;2023-09-18T07:27:33;10.13;;;3.80;;
6117;SDS011;3089;48.202;11.510;2023-09-18T07:30:03;7.57;;;4.23;;
6117;SDS011;3089;48.202;11.510;2023-09-18T07:32:31;9.27;;;3.97;;
6117;SDS011;3089;48.202;11.510;2023-09-18T07:35:06;6.63;;;4.23;;
6117;SDS011;3089;48.202;11.510;2023-09-18T07:37:34;14.93;;;3.50;;
6117;SDS011;3089;48.202;11.510;2023-09-18T07:40:03;6.67;;;4.50;;
6117;SDS011;3089;48.202;11.510;2023-09-18T07:42:32;10.63;;;4.60;;
6117;SDS011;3089;48.202;11.510;2023-09-18T07:45:00;8.53;;;3.93;;
6117;SDS011;3089;48.202;11.510;2023-09-18T07:47:28;6.30;;;3.40;;
6117;SDS011;3089;48.202;11.510;2023-09-18T07:49:57;8.80;;;4.50;;
6117;SDS011;3089;48.202;11.510;2023-09-18T07:52:26;5.83;;;3.73;;
6117;SDS011;3089;48.202;11.510;2023-09-18T07:54:54;7.37;;;3.60;;
6117;SDS011;3089;48.202;11.510;2023-09-18T07:57:25;6.50;;;3.60;;
6117;SDS011;3089;48.202;11.510;2023-09-18T07:59:54;7.53;;;4.20;;
6117;SDS011;3089;48.202;11.510;2023-09-18T08:02:22;7.27;;;3.00;;
6117;SDS011;3089;48.202;11.510;2023-09-18T08:04:50;11.33;;;3.73;;
6117;SDS011;3089;48.202;11.510;2023-09-18T08:07:19;6.80;;;3.53;;
6117;SDS011;3089;48.202;11.510;2023-09-18T08:09:48;5.53;;;3.43;;
6117;SDS011;3089;48.202;11.510;2023-09-18T08:12:16;7.03;;;3.67;;
6117;SDS011;3089;48.202;11.510;2023-09-18T08:14:44;11.00;;;4.30;;
6117;SDS011;3089;48.202;11.510;2023-09-18T08:17:12;8.27;;;4.47;;
6117;SDS011;3089;48.202;11.510;2023-09-18T08:19:40;11.93;;;3.60;;
6117;SDS011;3089;48.202;11.510;2023-09-18T08:22:10;7.77;;;3.70;;
6117;SDS011;3089;48.202;11.510;2023-09-18T08:24:41;8.20;;;3.33;;
6117;SDS011;3089;48.202;11.510;2023-09-18T08:27:13;7.90;;;4.33;;
6117;SDS011;3089;48.202;11.510;2023-09-18T08:29:42;6.60;;;3.60;;
6117;SDS011;3089;48.202;11.510;2023-09-18T08:32:10;5.23;;;3.43;;
6117;SDS011;3089;48.202;11.510;2023-09-18T08:34:38;5.07;;;3.33;;
6117;SDS011;3089;48.202;11.510;2023-09-18T08:37:06;9.37;;;4.50;;
6117;SDS011;3089;48.202;11.510;2023-09-18T08:39:35;10.50;;;4.20;;
6117;SDS011;3089;48.202;11.510;2023-09-18T08:42:04;5.90;;;3.50;;
6117;SDS011;3089;48.202;11.510;2023-09-18T08:44:36;5.47;;;3.20;;
6117;SDS011;3089;48.202;11.510;2023-09-18T08:47:07;8.07;;;3.30;;
6117;SDS011;3089;48.202;11.510;2023-09-18T08:49:37;10.13;;;4.10;;
6117;SDS011;3089;48.202;11.510;2023-09-18T08:52:06;5.60;;;3.40;;
6117;SDS011;3089;48.202;11.510;2023-09-18T08:54:35;6.10;;;3.43;;
6117;SDS011;3089;48.202;11.510;2023-09-18T08:57:03;8.30;;;3.73;;
6117;SDS011;3089;48.202;11.510;2023-09-18T08:59:33;6.67;;;3.40;;
6117;SDS011;3089;48.202;11.510;2023-09-18T09:02:04;9.40;;;4.07;;
6117;SDS011;3089;48.202;11.510;2023-09-18T09:04:32;12.93;;;3.60;;
6117;SDS011;3089;48.202;11.510;2023-09-18T09:07:00;7.20;;;4.27;;
6117;SDS011;3089;48.202;11.510;2023-09-18T09:09:28;10.30;;;3.40;;
6117;SDS011;3089;48.202;11.510;2023-09-18T09:11:57;6.00;;;3.33;;
6117;SDS011;3089;48.202;11.510;2023-09-18T09:14:25;9.03;;;3.80;;
6117;SDS011;3089;48.202;11.510;2023-09-18T09:16:56;6.13;;;3.20;;
6117;SDS011;3089;48.202;11.510;2023-09-18T09:19:28;5.90;;;3.47;;
6117;SDS011;3089;48.202;11.510;2023-09-18T09:21:57;9.60;;;3.30;;
6117;SDS011;3089;48.202;11.510;2023-09-18T09:24:36;6.23;;;3.07;;
6117;SDS011;3089;48.202;11.510;2023-09-18T09:27:05;6.73;;;3.67;;
6117;SDS011;3089;48.202;11.510;2023-09-18T09:29:33;16.23;;;4.37;;
6117;SDS011;3089;48.202;11.510;2023-09-18T09:32:13;9.90;;;3.80;;
6117;SDS011;3089;48.202;11.510;2023-09-18T09:34:42;9.20;;;3.80;;
6117;SDS011;3089;48.202;11.510;2023-09-18T09:37:10;9.10;;;3.43;;
6117;SDS011;3089;48.202;11.510;2023-09-18T09:39:49;8.10;;;3.53;;
6117;SDS011;3089;48.202;11.510;2023-09-18T09:42:18;5.70;;;3.00;;
6117;SDS011;3089;48.202;11.510;2023-09-18T09:45:01;11.07;;;4.10;;
6117;SDS011;3089;48.202;11.510;2023-09-18T09:47:35;11.60;;;3.73;;
6117;SDS011;3089;48.202;11.510;2023-09-18T09:50:05;10.53;;;3.27;;
6117;SDS011;3089;48.202;11.510;2023-09-18T09:52:35;14.03;;;3.53;;
6117;SDS011;3089;48.202;11.510;2023-09-18T09:55:18;13.10;;;3.40;;
6117;SDS011;3089;48.202;11.510;2023-09-18T09:57:47;10.47;;;3.40;;
6117;SDS011;3089;48.202;11.510;2023-09-18T10:00:16;7.60;;;3.10;;
6117;SDS011;3089;48.202;11.510;2023-09-18T10:02:56;6.77;;;3.47;;
6117;SDS011;3089;48.202;11.510;2023-09-18T10:05:27;8.50;;;3.67;;
6117;SDS011;3089;48.202;11.510;2023-09-18T10:07:59;12.47;;;3.20;;
6117;SDS011;3089;48.202;11.510;2023-09-18T10:10:30;7.90;;;3.20;;
6117;SDS011;3089;48.202;11.510;2023-09-18T10:13:00;11.10;;;2.70;;
6117;SDS011;3089;48.202;11.510;2023-09-18T10:15:34;6.17;;;2.73;;
6117;SDS011;3089;48.202;11.510;2023-09-18T10:18:07;6.27;;;2.90;;
6117;SDS011;3089;48.202;11.510;2023-09-18T10:20:46;10.70;;;2.67;;
6117;SDS011;3089;48.202;11.510;2023-09-18T10:23:20;10.83;;;2.90;;
6117;SDS011;3089;48.202;11.510;2023-09-18T10:26:00;7.73;;;2.70;;
6117;SDS011;3089;48.202;11.510;2023-09-18T10:28:30;9.90;;;3.60;;
6117;SDS011;3089;48.202;11.510;2023-09-18T10:31:00;8.73;;;2.63;;
6117;SDS011;3089;48.202;11.510;2023-09-18T10:33:31;6.50;;;2.30;;
6117;SDS011;3089;48.202;11.510;2023-09-18T10:36:00;8.57;;;2.77;;
6117;SDS011;3089;48.202;11.510;2023-09-18T10:38:30;7.57;;;2.60;;
6117;SDS011;3089;48.202;11.510;2023-09-18T10:40:59;8.73;;;2.70;;
6117;SDS011;3089;48.202;11.510;2023-09-18T10:43:29;10.43;;;2.83;;
6117;SDS011;3089;48.202;11.510;2023-09-18T10:45:57;14.13;;;2.83;;
6117;SDS011;3089;48.202;11.510;2023-09-18T10:48:25;10.23;;;2.40;;
6117;SDS011;3089;48.202;11.510;2023-09-18T10:50:55;12.00;;;2.40;;
6117;SDS011;3089;48.202;11.510;2023-09-18T10:53:25;8.30;;;1.90;;
6117;SDS011;3089;48.202;11.510;2023-09-18T10:55:53;14.50;;;3.40;;
6117;SDS011;3089;48.202;11.510;2023-09-18T10:58:24;10.80;;;2.23;;
6117;SDS011;3089;48.202;11.510;2023-09-18T11:00:53;10.43;;;2.70;;
6117;SDS011;3089;48.202;11.510;2023-09-18T11:03:23;11.20;;;2.40;;
6117;SDS011;3089;48.202;11.510;2023-09-18T11:06:06;15.87;;;3.13;;
6117;SDS011;3089;48.202;11.510;2023-09-18T11:08:35;10.57;;;2.20;;
6117;SDS011;3089;48.202;11.510;2023-09-18T11:11:12;8.00;;;3.00;;
6117;SDS011;3089;48.202;11.510;2023-09-18T11:13:43;6.27;;;2.00;;
6117;SDS011;3089;48.202;11.510;2023-09-18T11:16:19;7.57;;;1.80;;
6117;SDS011;3089;48.202;11.510;2023-09-18T11:19:08;9.07;;;2.07;;
6117;SDS011;3089;48.202;11.510;2023-09-18T11:21:39;7.57;;;2.13;;
6117;SDS011;3089;48.202;11.510;2023-09-18T11:24:11;7.00;;;1.80;;
6117;SDS011;3089;48.202;11.510;2023-09-18T11:26:44;8.07;;;2.20;;
6117;SDS011;3089;48.202;11.510;2023-09-18T11:29:14;8.57;;;1.60;;
6117;SDS011;3089;48.202;11.510;2023-09-18T11:31:45;12.57;;;2.27;;
6117;SDS011;3089;48.202;11.510;2023-09-18T11:34:16;5.23;;;1.53;;
6117;SDS011;3089;48.202;11.510;2023-09-18T11:36:49;7.33;;;1.40;;
6117;SDS011;3089;48.202;11.510;2023-09-18T11:39:34;7.40;;;1.67;;
6117;SDS011;3089;48.202;11.510;2023-09-18T11:42:06;8.03;;;2.20;;
6117;SDS011;3089;48.202;11.510;2023-09-18T11:44:36;5.20;;;1.60;;
6117;SDS011;3089;48.202;11.510;2023-09-18T11:47:08;8.07;;;1.75;;
6117;SDS011;3089;48.202;11.510;2023-09-18T11:49:45;5.70;;;1.67;;
6117;SDS011;3089;48.202;11.510;2023-09-18T11:52:18;4.07;;;1.23;;
6117;SDS011;3089;48.202;11.510;2023-09-18T11:54:46;3.97;;;1.60;;
6117;SDS011;3089;48.202;11.510;2023-09-18T11:57:14;8.90;;;1.50;;
6117;SDS011;3089;48.202;11.510;2023-09-18T11:59:44;4.03;;;1.20;;
6117;SDS011;3089;48.202;11.510;2023-09-18T12:02:13;7.80;;;1.90;;
6117;SDS011;3089;48.202;11.510;2023-09-18T12:04:47;5.80;;;1.57;;
6117;SDS011;3089;48.202;11.510;2023-09-18T12:07:15;4.20;;;1.00;;
6117;SDS011;3089;48.202;11.510;2023-09-18T12:09:46;2.67;;;1.00;;
6117;SDS011;3089;48.202;11.510;2023-09-18T12:12:15;11.30;;;1.50;;
6117;SDS011;3089;48.202;11.510;2023-09-18T12:14:44;4.77;;;1.27;;
6117;SDS011;3089;48.202;11.510;2023-09-18T12:17:13;5.77;;;1.50;;
6117;SDS011;3089;48.202;11.510;2023-09-18T12:19:50;6.27;;;1.07;;
6117;SDS011;3089;48.202;11.510;2023-09-18T12:22:24;5.77;;;1.17;;
6117;SDS011;3089;48.202;11.510;2023-09-18T12:24:53;3.27;;;0.90;;
6117;SDS011;3089;48.202;11.510;2023-09-18T12:27:36;5.70;;;1.17;;
6117;SDS011;3089;48.202;11.510;2023-09-18T12:30:06;4.93;;;1.13;;
6117;SDS011;3089;48.202;11.510;2023-09-18T12:32:35;3.27;;;1.07;;
6117;SDS011;3089;48.202;11.510;2023-09-18T12:35:05;3.30;;;1.20;;
6117;SDS011;3089;48.202;11.510;2023-09-18T12:37:38;2.27;;;0.90;;
6117;SDS011;3089;48.202;11.510;2023-09-18T12:40:07;3.37;;;1.07;;
6117;SDS011;3089;48.202;11.510;2023-09-18T12:42:48;4.43;;;1.73;;
6117;SDS011;3089;48.202;11.510;2023-09-18T12:45:17;3.97;;;1.03;;
6117;SDS011;3089;48.202;11.510;2023-09-18T12:47:45;5.80;;;1.63;;
6117;SDS011;3089;48.202;11.510;2023-09-18T12:50:14;5.13;;;1.50;;
6117;SDS011;3089;48.202;11.510;2023-09-18T12:52:43;5.17;;;1.33;;
6117;SDS011;3089;48.202;11.510;2023-09-18T12:55:20;3.30;;;1.23;;
6117;SDS011;3089;48.202;11.510;2023-09-18T12:57:50;5.90;;;1.47;;
6117;SDS011;3089;48.202;11.510;2023-09-18T13:00:18;5.17;;;1.20;;
6117;SDS011;3089;48.202;11.510;2023-09-18T13:02:48;2.90;;;1.27;;
6117;SDS011;3089;48.202;11.510;2023-09-18T13:05:21;2.50;;;0.70;;
6117;SDS011;3089;48.202;11.510;2023-09-18T13:07:53;2.60;;;0.97;;
6117;SDS011;3089;48.202;11.510;2023-09-18T13:10:22;2.97;;;1.10;;
6117;SDS011;3089;48.202;11.510;2023-09-18T13:12:54;4.57;;;1.10;;
6117;SDS011;3089;48.202;11.510;2023-09-18T13:15:24;7.10;;;1.20;;
6117;SDS011;3089;48.202;11.510;2023-09-18T13:17:54;5.30;;;1.10;;
6117;SDS011;3089;48.202;11.510;2023-09-18T13:20:24;5.00;;;1.57;;
6117;SDS011;3089;48.202;11.510;2023-09-18T13:22:56;3.57;;;1.10;;
6117;SDS011;3089;48.202;11.510;2023-09-18T13:25:28;3.80;;;1.17;;
6117;SDS011;3089;48.202;11.510;2023-09-18T13:28:00;3.50;;;1.10;;
6117;SDS011;3089;48.202;11.510;2023-09-18T13:30:29;3.30;;;0.90;;
6117;SDS011;3089;48.202;11.510;2023-09-18T13:33:03;3.87;;;0.93;;
6117;SDS011;3089;48.202;11.510;2023-09-18T13:35:32;4.40;;;1.17;;
6117;SDS011;3089;48.202;11.510;2023-09-18T13:38:03;3.60;;;1.33;;
6117;SDS011;3089;48.202;11.510;2023-09-18T13:40:31;7.40;;;1.23;;
6117;SDS011;3089;48.202;11.510;2023-09-18T13:43:00;4.33;;;1.00;;
6117;SDS011;3089;48.202;11.510;2023-09-18T13:45:29;2.97;;;1.00;;
6117;SDS011;3089;48.202;11.510;2023-09-18T13:47:57;5.90;;;1.20;;
6117;SDS011;3089;48.202;11.510;2023-09-18T13:50:26;6.50;;;1.10;;
6117;SDS011;3089;48.202;11.510;2023-09-18T13:52:54;3.10;;;1.20;;
6117;SDS011;3089;48.202;11.510;2023-09-18T13:55:23;6.90;;;1.20;;
6117;SDS011;3089;48.202;11.510;2023-09-18T13:57:51;3.27;;;1.30;;
6117;SDS011;3089;48.202;11.510;2023-09-18T14:00:19;3.27;;;1.33;;
6117;SDS011;3089;48.202;11.510;2023-09-18T14:02:47;3.90;;;1.30;;
6117;SDS011;3089;48.202;11.510;2023-09-18T14:05:15;6.03;;;1.30;;
6117;SDS011;3089;48.202;11.510;2023-09-18T14:07:44;6.37;;;1.43;;
6117;SDS011;3089;48.202;11.510;2023-09-18T14:10:13;3.93;;;1.33;;
6117;SDS011;3089;48.202;11.510;2023-09-18T14:12:43;3.47;;;1.07;;
6117;SDS011;3089;48.202;11.510;2023-09-18T14:15:11;6.33;;;0.83;;
6117;SDS011;3089;48.202;11.510;2023-09-18T14:17:38;5.47;;;1.40;;
6117;SDS011;3089;48.202;11.510;2023-09-18T14:20:07;4.23;;;1.13;;
6117;SDS011;3089;48.202;11.510;2023-09-18T14:22:36;2.70;;;1.20;;
6117;SDS011;3089;48.202;11.510;2023-09-18T14:25:05;5.33;;;1.10;;
6117;SDS011;3089;48.202;11.510;2023-09-18T14:27:33;5.13;;;1.10;;
6117;SDS011;3089;48.202;11.510;2023-09-18T14:30:03;6.63;;;1.50;;
6117;SDS011;3089;48.202;11.510;2023-09-18T14:32:35;5.53;;;1.40;;
6117;SDS011;3089;48.202;11.510;2023-09-18T14:35:04;4.97;;;1.30;;
6117;SDS011;3089;48.202;11.510;2023-09-18T14:37:34;3.40;;;1.10;;
6117;SDS011;3089;48.202;11.510;2023-09-18T14:40:03;5.83;;;1.10;;
6117;SDS011;3089;48.202;11.510;2023-09-18T14:42:34;3.17;;;0.93;;
6117;SDS011;3089;48.202;11.510;2023-09-18T14:45:04;4.30;;;1.20;;
6117;SDS011;3089;48.202;11.510;2023-09-18T14:47:32;9.80;;;1.20;;
6117;SDS011;3089;48.202;11.510;2023-09-18T14:50:00;6.63;;;1.37;;
6117;SDS011;3089;48.202;11.510;2023-09-18T14:52:28;4.30;;;1.00;;
6117;SDS011;3089;48.202;11.510;2023-09-18T14:54:56;2.93;;;1.03;;
6117;SDS011;3089;48.202;11.510;2023-09-18T14:57:25;4.33;;;1.40;;
6117;SDS011;3089;48.202;11.510;2023-09-18T14:59:54;3.50;;;1.13;;
6117;SDS011;3089;48.202;11.510;2023-09-18T15:02:23;5.13;;;1.40;;
6117;SDS011;3089;48.202;11.510;2023-09-18T15:04:56;3.73;;;1.20;;
6117;SDS011;3089;48.202;11.510;2023-09-18T15:07:24;5.03;;;1.20;;
6117;SDS011;3089;48.202;11.510;2023-09-18T15:09:51;3.30;;;1.03;;
6117;SDS011;3089;48.202;11.510;2023-09-18T15:12:19;6.13;;;1.10;;
6117;SDS011;3089;48.202;11.510;2023-09-18T15:14:48;4.33;;;1.30;;
6117;SDS011;3089;48.202;11.510;2023-09-18T15:17:16;2.93;;;1.30;;